Terminal Aerodrome Forecast
Issued by NWS

Home | Current Version | Previous Version | Text Only | Print | Product List | Glossary On
Versions: 1 2 3 4 5 6 7 8 9 10 11 12 13 14 15 16 17 18 19 20 21
481
FTUS43 KAPX 282330
TAFAPN
TAF
KAPN 282330Z 2900/2924 05009KT P6SM BKN140
     FM290500 34006KT P6SM BKN070
     FM291100 31006KT P6SM SCT140
     FM291600 34008KT P6SM SCT250=

USA.gov is the U.S. government's official web portal to all federal, state and local government web resources and services.